Time;durP1;ratioP1;P1;durP2;ratioP2;P2;SDS_P1;SDS_P2;PMS_P1;PMS_P2;Temp;Humidity;BMP_temperature;BMP_pressure;BME280_temperature;BME280_humidity;BME280_pressure;Samples;Min_cycle;Max_cycle;Signal;HPM_P1;HPM_P2
2022/07/06 00:00:04;;;;;;;5.68;1.75;;;17.10;99.90;;;;;;4993929;28;20085;-78
2022/07/06 00:02:30;;;;;;;5.65;1.80;;;17.00;99.90;;;;;;4996872;28;20014;-78
2022/07/06 00:04:57;;;;;;;3.97;1.65;;;17.00;99.90;;;;;;4997432;28;20030;-78
2022/07/06 00:07:23;;;;;;;4.65;1.60;;;17.00;99.90;;;;;;4997762;28;20037;-78
2022/07/06 00:09:49;;;;;;;3.88;1.60;;;16.90;99.90;;;;;;4997737;28;20018;-78
2022/07/06 00:12:14;;;;;;;3.83;1.85;;;16.90;99.90;;;;;;4997602;28;20027;-78
2022/07/06 00:14:40;;;;;;;2.63;1.60;;;16.90;99.90;;;;;;4997592;28;20108;-78
2022/07/06 00:17:06;;;;;;;4.15;1.70;;;16.80;99.90;;;;;;4997586;28;20447;-78
2022/07/06 00:19:31;;;;;;;2.67;1.60;;;16.80;99.90;;;;;;4997956;28;20034;-78
2022/07/06 00:21:57;;;;;;;2.22;1.60;;;16.80;99.90;;;;;;4997203;28;20030;-78
2022/07/06 00:24:22;;;;;;;2.58;1.50;;;16.80;99.90;;;;;;4996989;28;20045;-78
2022/07/06 00:26:48;;;;;;;4.15;2.00;;;16.70;99.90;;;;;;4997132;28;20069;-77
2022/07/06 00:29:13;;;;;;;6.05;1.88;;;16.70;99.90;;;;;;4997139;28;20106;-78
2022/07/06 00:31:39;;;;;;;3.53;1.80;;;16.70;99.90;;;;;;4997493;28;20034;-77
2022/07/06 00:34:05;;;;;;;3.75;1.60;;;16.60;99.90;;;;;;4997222;28;20026;-77
2022/07/06 00:36:30;;;;;;;4.40;1.60;;;16.60;99.90;;;;;;4995516;28;20022;-78
2022/07/06 00:38:56;;;;;;;5.25;1.70;;;16.60;99.90;;;;;;4997167;28;20034;-78
2022/07/06 00:41:21;;;;;;;2.92;1.70;;;16.50;99.90;;;;;;4999602;28;20026;-81
2022/07/06 00:43:48;;;;;;;2.50;1.80;;;16.50;99.90;;;;;;5013481;28;20367;-81
2022/07/06 00:46:14;;;;;;;5.05;1.52;;;16.50;99.90;;;;;;5013333;28;20104;-81
2022/07/06 00:48:39;;;;;;;3.90;1.63;;;16.50;99.90;;;;;;5013449;28;20100;-81
2022/07/06 00:51:05;;;;;;;3.63;1.67;;;16.50;99.90;;;;;;5013122;28;20033;-81
2022/07/06 00:53:30;;;;;;;5.40;1.88;;;16.50;99.90;;;;;;5013278;28;20034;-81
2022/07/06 00:55:56;;;;;;;3.10;1.60;;;16.50;99.90;;;;;;5012806;28;20026;-81
2022/07/06 00:58:22;;;;;;;4.65;1.60;;;16.50;99.90;;;;;;5011907;28;20033;-81
2022/07/06 01:00:47;;;;;;;5.97;1.83;;;16.50;99.90;;;;;;5013256;28;20026;-80
2022/07/06 01:03:13;;;;;;;3.08;1.52;;;16.50;99.90;;;;;;5011805;28;20018;-80
2022/07/06 01:05:38;;;;;;;5.78;1.67;;;16.50;99.90;;;;;;5013013;28;20634;-80
2022/07/06 01:08:04;;;;;;;3.40;1.55;;;16.50;99.90;;;;;;5012682;28;20034;-80
2022/07/06 01:10:30;;;;;;;2.85;1.70;;;16.50;99.90;;;;;;5013031;28;20117;-79
2022/07/06 01:12:57;;;;;;;5.40;1.63;;;16.40;99.90;;;;;;5011638;28;20102;-80
2022/07/06 01:15:24;;;;;;;5.53;1.80;;;16.40;99.90;;;;;;5011491;28;20578;-80
2022/07/06 01:17:50;;;;;;;2.40;1.52;;;16.40;99.90;;;;;;5012458;28;20423;-80
2022/07/06 01:20:24;;;;;;;4.75;1.63;;;16.40;99.90;;;;;;5012713;28;20526;-80
2022/07/06 01:22:53;;;;;;;5.03;1.80;;;16.30;99.90;;;;;;5004193;28;20424;-80
2022/07/06 01:25:20;;;;;;;3.20;1.70;;;16.30;99.90;;;;;;5008641;28;20109;-79
2022/07/06 01:27:46;;;;;;;3.20;1.70;;;16.30;99.90;;;;;;5010948;28;20475;-79
2022/07/06 01:30:15;;;;;;;3.40;1.60;;;16.30;99.90;;;;;;5011122;28;20038;-79
2022/07/06 01:32:42;;;;;;;3.88;2.08;;;16.30;99.90;;;;;;5012542;28;20025;-79
2022/07/06 01:35:10;;;;;;;3.33;1.45;;;16.20;99.90;;;;;;5012513;28;20121;-79
2022/07/06 01:37:35;;;;;;;2.78;1.77;;;16.20;99.90;;;;;;5015779;28;20072;-77
2022/07/06 01:40:03;;;;;;;4.45;1.60;;;16.10;99.90;;;;;;5015398;28;20120;-77
2022/07/06 01:42:28;;;;;;;3.70;1.52;;;16.10;99.90;;;;;;5015410;28;20030;-77
2022/07/06 01:44:55;;;;;;;5.10;2.05;;;16.10;99.90;;;;;;5015337;28;20041;-77
2022/07/06 01:47:20;;;;;;;3.80;2.05;;;16.10;99.90;;;;;;5015263;28;20547;-77
2022/07/06 01:49:46;;;;;;;6.05;1.90;;;16.10;99.90;;;;;;5015839;28;20088;-78
2022/07/06 01:52:12;;;;;;;4.30;1.90;;;16.00;99.90;;;;;;5013801;28;20096;-77
2022/07/06 01:54:37;;;;;;;7.53;1.88;;;15.90;99.90;;;;;;5015685;28;20066;-78
2022/07/06 01:57:03;;;;;;;3.47;1.80;;;15.90;99.90;;;;;;5013666;28;20109;-78
2022/07/06 01:59:29;;;;;;;3.35;1.85;;;15.90;99.90;;;;;;5015026;28;20033;-77
2022/07/06 02:01:55;;;;;;;4.45;2.30;;;15.90;99.90;;;;;;5015210;28;20154;-78
2022/07/06 02:04:20;;;;;;;3.80;1.50;;;15.80;99.90;;;;;;5015264;28;20030;-79
2022/07/06 02:06:46;;;;;;;4.70;1.90;;;15.80;99.90;;;;;;5015001;28;20030;-78
2022/07/06 02:09:11;;;;;;;2.83;1.73;;;15.80;99.90;;;;;;5015346;28;20034;-78
2022/07/06 02:11:37;;;;;;;4.25;1.65;;;15.70;99.90;;;;;;5014897;28;20104;-76
2022/07/06 02:14:02;;;;;;;2.40;1.67;;;15.70;99.90;;;;;;5014804;28;20108;-75
2022/07/06 02:16:28;;;;;;;6.22;1.50;;;15.70;99.90;;;;;;5014803;28;20030;-75
2022/07/06 02:18:54;;;;;;;4.30;1.55;;;15.70;99.90;;;;;;5014484;28;20030;-78
2022/07/06 02:21:19;;;;;;;6.47;1.88;;;15.70;99.90;;;;;;5014735;28;20026;-78
2022/07/06 02:23:45;;;;;;;3.22;1.70;;;15.60;99.90;;;;;;5014305;28;20026;-78
2022/07/06 02:26:10;;;;;;;2.55;1.70;;;15.60;99.90;;;;;;5014674;28;20478;-76
2022/07/06 02:28:36;;;;;;;3.80;1.60;;;15.60;99.90;;;;;;5014612;28;20490;-76
2022/07/06 02:31:02;;;;;;;4.15;1.38;;;15.60;99.90;;;;;;5014297;28;20030;-76
2022/07/06 02:33:27;;;;;;;3.05;1.50;;;15.60;99.90;;;;;;5014337;28;20026;-76
2022/07/06 02:35:53;;;;;;;3.92;1.50;;;15.50;99.90;;;;;;5033651;28;20469;-77
2022/07/06 02:38:18;;;;;;;2.85;1.70;;;15.50;99.90;;;;;;5033944;28;20366;-78
2022/07/06 02:40:44;;;;;;;4.60;1.92;;;15.40;99.90;;;;;;5034345;28;20056;-78
2022/07/06 02:43:09;;;;;;;2.25;1.70;;;15.40;99.90;;;;;;5033972;28;20056;-78
2022/07/06 02:45:35;;;;;;;3.53;1.80;;;15.40;99.90;;;;;;5033912;28;20025;-78
2022/07/06 02:48:01;;;;;;;6.22;2.15;;;15.30;99.90;;;;;;5034122;28;20359;-78
2022/07/06 02:50:27;;;;;;;3.88;1.60;;;15.30;99.90;;;;;;5033846;28;20036;-77
2022/07/06 02:52:53;;;;;;;5.60;1.98;;;15.30;99.90;;;;;;5034172;28;20029;-78
2022/07/06 02:55:19;;;;;;;3.60;1.80;;;15.20;99.90;;;;;;5033844;28;20025;-78
2022/07/06 02:57:44;;;;;;;5.32;1.90;;;15.20;99.90;;;;;;5034000;28;20184;-78
2022/07/06 03:00:11;;;;;;;4.68;1.83;;;15.10;99.90;;;;;;5034762;28;20025;-78
2022/07/06 03:02:36;;;;;;;2.90;2.00;;;15.10;99.90;;;;;;5034852;28;20021;-78
2022/07/06 03:05:02;;;;;;;3.90;1.80;;;15.10;99.90;;;;;;5033910;28;20132;-78
2022/07/06 03:07:28;;;;;;;4.32;1.85;;;15.10;99.90;;;;;;5033853;28;20029;-78
2022/07/06 03:09:53;;;;;;;3.55;1.77;;;15.00;99.90;;;;;;5033529;28;20038;-77
2022/07/06 03:12:19;;;;;;;4.03;1.67;;;15.00;99.90;;;;;;5033935;28;20033;-77
2022/07/06 03:14:44;;;;;;;4.18;1.95;;;15.00;99.90;;;;;;5033533;28;20107;-77
2022/07/06 03:17:10;;;;;;;3.22;1.77;;;14.90;99.90;;;;;;5033539;28;20029;-77
2022/07/06 03:19:35;;;;;;;3.08;1.80;;;14.90;99.90;;;;;;5033543;28;20022;-77
2022/07/06 03:22:01;;;;;;;5.28;1.95;;;14.90;99.90;;;;;;5034250;28;20029;-77
2022/07/06 03:24:27;;;;;;;7.80;2.70;;;14.80;99.90;;;;;;5033368;28;20053;-77
2022/07/06 03:26:53;;;;;;;3.95;1.90;;;14.80;99.90;;;;;;5033742;28;20107;-77
2022/07/06 03:29:18;;;;;;;5.00;2.08;;;14.80;99.90;;;;;;5033862;28;20081;-77
2022/07/06 03:31:44;;;;;;;3.92;1.98;;;14.70;99.90;;;;;;5033381;28;20025;-77
2022/07/06 03:34:10;;;;;;;4.10;2.05;;;14.70;99.90;;;;;;5033374;28;20485;-77
2022/07/06 03:36:35;;;;;;;4.53;1.95;;;14.70;99.90;;;;;;5035062;28;20037;-77
2022/07/06 03:39:01;;;;;;;6.97;2.20;;;14.60;99.90;;;;;;5037487;28;20033;-77
2022/07/06 03:41:26;;;;;;;8.15;2.30;;;14.60;99.90;;;;;;5037759;28;20114;-77
2022/07/06 03:43:52;;;;;;;5.63;2.10;;;14.60;99.90;;;;;;5037326;28;20029;-77
2022/07/06 03:46:17;;;;;;;3.53;1.98;;;14.60;99.90;;;;;;5037458;28;20029;-77
2022/07/06 03:48:43;;;;;;;6.22;2.20;;;14.60;99.90;;;;;;5037717;28;20033;-77
2022/07/06 03:51:10;;;;;;;3.85;2.22;;;14.60;99.90;;;;;;5036095;28;20030;-77
2022/07/06 03:53:35;;;;;;;3.90;1.95;;;14.60;99.90;;;;;;5036442;28;20039;-77
2022/07/06 03:58:45;;;;;;;4.70;2.00;;;14.60;99.90;;;;;;5037727;28;20035;-77
2022/07/06 04:01:11;;;;;;;3.40;1.92;;;14.60;99.90;;;;;;5037262;28;20275;-77
2022/07/06 04:03:37;;;;;;;3.00;2.10;;;14.60;99.90;;;;;;5037327;28;20072;-77
2022/07/06 04:06:03;;;;;;;5.40;2.03;;;14.60;99.90;;;;;;5037201;28;20025;-77
2022/07/06 04:08:28;;;;;;;3.70;2.53;;;14.60;99.90;;;;;;5037107;28;20025;-77
2022/07/06 04:10:54;;;;;;;4.07;2.20;;;14.70;99.90;;;;;;5037247;28;20052;-77
2022/07/06 04:13:19;;;;;;;6.57;2.60;;;14.70;99.90;;;;;;5037122;28;20087;-77
2022/07/06 04:15:45;;;;;;;4.90;2.30;;;14.80;99.90;;;;;;5036947;28;20036;-80
2022/07/06 04:18:10;;;;;;;3.45;2.10;;;14.80;99.90;;;;;;5036688;28;20097;-70
2022/07/06 04:20:36;;;;;;;6.03;2.20;;;14.90;99.90;;;;;;5035346;28;20040;-70
2022/07/06 04:23:02;;;;;;;5.05;2.10;;;14.90;99.90;;;;;;5036845;28;20053;-70
2022/07/06 04:25:28;;;;;;;5.10;2.20;;;14.90;99.90;;;;;;5036324;28;20482;-70
2022/07/06 04:27:53;;;;;;;3.88;1.95;;;15.00;99.90;;;;;;5037000;28;20112;-72
2022/07/06 04:30:19;;;;;;;6.45;1.95;;;15.00;99.90;;;;;;5015705;28;20034;-73
2022/07/06 04:32:45;;;;;;;2.83;1.95;;;15.00;99.90;;;;;;5010835;28;20037;-73
2022/07/06 04:35:10;;;;;;;3.78;1.98;;;15.10;99.90;;;;;;5012211;28;20034;-73
2022/07/06 04:37:37;;;;;;;5.30;2.00;;;15.10;99.90;;;;;;5017769;28;20053;-74
2022/07/06 04:40:03;;;;;;;5.40;2.22;;;15.20;99.90;;;;;;5020209;28;20459;-73
2022/07/06 04:42:28;;;;;;;5.13;2.15;;;15.20;99.90;;;;;;5017576;28;20026;-73
2022/07/06 04:44:54;;;;;;;4.35;1.90;;;15.20;99.90;;;;;;5001304;28;20034;-70
2022/07/06 04:47:20;;;;;;;3.28;2.03;;;15.30;99.90;;;;;;4996968;28;20034;-70
2022/07/06 04:49:45;;;;;;;4.65;2.10;;;15.30;99.90;;;;;;4996726;28;20022;-70
2022/07/06 04:52:11;;;;;;;3.25;1.90;;;15.50;99.90;;;;;;5000487;28;20068;-70
2022/07/06 04:54:36;;;;;;;6.32;2.30;;;15.50;99.90;;;;;;5016048;28;20352;-71
2022/07/06 04:57:03;;;;;;;5.80;2.03;;;15.60;99.90;;;;;;5015995;28;20033;-70
2022/07/06 04:59:28;;;;;;;4.60;2.00;;;15.70;99.90;;;;;;5018795;28;20029;-70
2022/07/06 05:01:54;;;;;;;3.17;1.90;;;15.80;99.90;;;;;;5035792;28;20463;-70
2022/07/06 05:04:19;;;;;;;3.95;1.90;;;15.90;99.90;;;;;;5035686;28;20025;-70
2022/07/06 05:06:46;;;;;;;2.83;1.70;;;16.10;99.90;;;;;;5035718;28;20034;-70
2022/07/06 05:09:12;;;;;;;2.47;1.95;;;16.20;99.90;;;;;;5016098;28;20037;-69
2022/07/06 05:11:38;;;;;;;5.38;2.28;;;16.30;99.90;;;;;;5016505;28;20087;-69
2022/07/06 05:14:04;;;;;;;3.42;1.90;;;16.40;99.90;;;;;;5012925;28;20030;-69
2022/07/06 05:16:30;;;;;;;4.55;1.85;;;16.50;99.90;;;;;;5013105;28;20040;-69
2022/07/06 05:18:55;;;;;;;3.55;2.40;;;16.60;99.90;;;;;;5008209;28;20026;-69
2022/07/06 05:21:21;;;;;;;4.50;1.92;;;16.80;99.90;;;;;;5010731;28;20034;-69
2022/07/06 05:23:47;;;;;;;5.10;1.85;;;16.90;99.90;;;;;;5012940;28;20061;-69
2022/07/06 05:26:12;;;;;;;3.45;2.10;;;17.10;99.90;;;;;;5005565;28;20428;-69
2022/07/06 05:28:38;;;;;;;3.15;1.83;;;17.30;99.90;;;;;;5014335;28;20060;-70
2022/07/06 05:31:04;;;;;;;1.90;1.55;;;17.40;99.90;;;;;;5008431;28;20030;-69
2022/07/06 05:33:29;;;;;;;4.00;1.70;;;17.60;99.90;;;;;;5008421;28;20029;-69
2022/07/06 05:35:55;;;;;;;3.25;1.80;;;17.70;99.90;;;;;;5013184;28;20138;-69
2022/07/06 05:38:20;;;;;;;2.55;1.60;;;17.90;99.90;;;;;;5015143;28;20394;-70
2022/07/06 05:40:46;;;;;;;1.85;1.42;;;18.00;99.90;;;;;;5015032;28;20037;-70
2022/07/06 05:43:12;;;;;;;2.65;1.52;;;18.10;99.90;;;;;;5006009;28;20038;-70
2022/07/06 05:45:38;;;;;;;5.55;1.80;;;18.10;99.90;;;;;;5020274;28;20514;-70
2022/07/06 05:50:47;;;;;;;2.45;1.50;;;18.30;99.90;;;;;;5033455;28;20086;-70
2022/07/06 05:53:13;;;;;;;3.55;1.58;;;18.40;99.90;;;;;;5044230;28;20029;-82
2022/07/06 05:55:38;;;;;;;3.80;1.58;;;18.50;99.90;;;;;;5053848;28;20017;-82
2022/07/06 05:58:04;;;;;;;6.07;1.70;;;18.60;99.90;;;;;;5053866;28;20025;-82
2022/07/06 06:00:30;;;;;;;3.88;1.70;;;18.70;99.90;;;;;;5053053;28;20033;-82
2022/07/06 06:03:00;;;;;;;4.35;1.83;;;18.70;99.90;;;;;;5054961;28;20014;-82
2022/07/06 06:05:26;;;;;;;2.97;2.03;;;18.80;99.90;;;;;;5053771;28;20057;-83
2022/07/06 06:07:52;;;;;;;4.15;1.98;;;18.70;99.90;;;;;;5057481;28;20021;-83
2022/07/06 06:10:33;;;;;;;4.93;1.90;;;18.70;99.90;;;;;;5056300;28;20049;-82
2022/07/06 06:13:01;;;;;;;4.25;1.75;;;18.70;99.90;;;;;;5056054;28;20033;-83
2022/07/06 06:15:32;;;;;;;7.80;2.10;;;18.60;99.90;;;;;;5055157;28;20036;-83
2022/07/06 06:18:01;;;;;;;4.03;2.30;;;18.70;99.90;;;;;;5042371;28;20117;-83
2022/07/06 06:20:34;;;;;;;6.30;2.33;;;18.70;99.90;;;;;;5034655;28;20025;-83
2022/07/06 06:23:14;;;;;;;5.50;1.73;;;18.80;99.90;;;;;;5033074;28;20072;-83
2022/07/06 06:25:42;;;;;;;3.47;1.88;;;18.90;99.90;;;;;;5034289;28;20033;-83
2022/07/06 06:28:14;;;;;;;4.72;1.67;;;18.90;99.90;;;;;;5036724;28;20018;-83
2022/07/06 06:30:43;;;;;;;3.03;1.70;;;18.90;99.90;;;;;;5035903;28;20045;-83
2022/07/06 06:33:13;;;;;;;4.43;1.98;;;18.90;99.90;;;;;;5036026;28;20030;-83
2022/07/06 06:36:01;;;;;;;3.63;2.00;;;18.90;99.90;;;;;;5035129;28;20018;-83
2022/07/06 06:39:05;;;;;;;8.25;2.20;;;19.10;99.90;;;;;;5034881;28;20013;-83
2022/07/06 06:41:31;;;;;;;4.03;1.90;;;19.20;99.90;;;;;;5033770;28;20050;-82
2022/07/06 06:44:02;;;;;;;6.30;2.05;;;19.30;99.90;;;;;;5035613;28;20529;-82
2022/07/06 06:46:35;;;;;;;4.25;1.98;;;19.30;99.90;;;;;;5032550;28;20014;-83
2022/07/06 06:49:01;;;;;;;4.63;2.08;;;19.30;99.90;;;;;;5036283;28;20033;-82
2022/07/06 06:51:32;;;;;;;3.17;2.15;;;19.40;99.90;;;;;;5033446;28;20022;-83
2022/07/06 06:54:11;;;;;;;5.47;2.00;;;19.50;99.90;;;;;;5032736;28;20033;-83
2022/07/06 06:56:44;;;;;;;4.05;2.17;;;19.70;99.90;;;;;;5034409;28;20057;-83
2022/07/06 06:59:12;;;;;;;5.47;2.45;;;19.70;99.90;;;;;;5030673;28;20037;-82
2022/07/06 07:02:00;;;;;;;4.95;2.20;;;19.80;99.90;;;;;;5030449;28;20026;-83
2022/07/06 07:04:35;;;;;;;4.88;2.25;;;19.70;99.90;;;;;;5027067;28;20038;-83
2022/07/06 07:07:01;;;;;;;4.93;2.00;;;19.80;99.90;;;;;;5036933;28;20032;-83
2022/07/06 07:09:44;;;;;;;3.90;1.95;;;19.80;99.90;;;;;;5048141;28;20013;-82
2022/07/06 07:12:14;;;;;;;4.28;1.70;;;20.00;99.90;;;;;;5051483;28;20028;-82
2022/07/06 07:14:43;;;;;;;6.30;2.10;;;20.10;99.90;;;;;;5051743;28;20028;-83
2022/07/06 07:17:12;;;;;;;4.93;2.00;;;20.20;99.90;;;;;;5049944;28;20013;-83
2022/07/06 07:19:40;;;;;;;7.53;2.10;;;20.30;99.90;;;;;;5049170;28;20481;-82
2022/07/06 07:22:14;;;;;;;5.93;1.83;;;20.50;99.90;;;;;;5050473;28;20026;-83
2022/07/06 07:24:42;;;;;;;3.17;1.73;;;20.60;99.90;;;;;;5054451;28;20068;-83
2022/07/06 07:27:33;;;;;;;4.38;1.83;;;20.60;99.90;;;;;;5056431;28;20063;-83
2022/07/06 07:30:02;;;;;;;5.32;2.03;;;20.60;99.90;;;;;;5041156;28;20077;-83
2022/07/06 07:32:30;;;;;;;6.35;2.33;;;20.80;99.90;;;;;;5033138;28;20045;-82
2022/07/06 07:35:02;;;;;;;4.25;2.00;;;20.70;99.90;;;;;;5023495;28;20052;-82
2022/07/06 07:37:50;;;;;;;4.35;1.77;;;20.70;99.90;;;;;;5023799;28;20026;-83
2022/07/06 07:40:25;;;;;;;4.35;1.83;;;20.70;99.90;;;;;;5022265;28;20030;-82
2022/07/06 07:42:50;;;;;;;6.70;1.88;;;20.80;99.90;;;;;;5026705;28;20041;-82
2022/07/06 07:45:25;;;;;;;6.25;2.20;;;20.70;99.90;;;;;;5024009;28;20030;-82
2022/07/06 07:47:53;;;;;;;4.28;1.90;;;20.80;99.90;;;;;;5025864;28;20030;-82
2022/07/06 07:50:22;;;;;;;3.50;1.60;;;20.90;99.90;;;;;;5024024;28;20030;-83
2022/07/06 07:53:31;;;;;;;5.35;2.20;;;20.90;99.90;;;;;;5026774;28;20037;-83
2022/07/06 07:56:35;;;;;;;5.07;1.77;;;21.00;99.90;;;;;;5020398;28;20085;-83
2022/07/06 07:59:03;;;;;;;6.20;2.05;;;21.00;99.90;;;;;;5019554;28;20033;-82
2022/07/06 08:01:31;;;;;;;3.67;2.10;;;21.10;99.90;;;;;;5022597;28;20030;-82
2022/07/06 08:04:14;;;;;;;3.50;1.98;;;21.20;99.90;;;;;;5027208;28;20045;-83
2022/07/06 08:06:42;;;;;;;4.35;2.22;;;21.10;99.90;;;;;;5023695;28;20017;-84
2022/07/06 08:09:13;;;;;;;4.65;2.25;;;21.10;99.90;;;;;;5026579;28;20364;-84
2022/07/06 08:11:41;;;;;;;4.90;2.30;;;21.00;99.90;;;;;;5005493;28;20034;-83
2022/07/06 08:14:14;;;;;;;5.05;2.20;;;21.00;99.90;;;;;;5008368;28;20011;-83
2022/07/06 08:16:42;;;;;;;3.33;1.98;;;20.90;99.90;;;;;;5005487;28;20033;-83
2022/07/06 08:19:15;;;;;;;6.85;2.15;;;20.80;99.90;;;;;;5009105;28;20022;-82
2022/07/06 08:21:41;;;;;;;6.13;2.08;;;20.90;99.90;;;;;;5008541;28;20007;-82
2022/07/06 08:24:14;;;;;;;3.72;2.10;;;21.00;99.90;;;;;;5024375;28;20064;-83
2022/07/06 08:26:43;;;;;;;4.72;2.40;;;21.00;99.90;;;;;;5051646;28;20057;-82
2022/07/06 08:29:33;;;;;;;3.58;2.20;;;21.10;99.90;;;;;;5053793;28;20017;-82
2022/07/06 08:32:02;;;;;;;4.03;2.50;;;21.10;99.90;;;;;;5051035;28;20026;-83
2022/07/06 08:34:31;;;;;;;4.88;2.05;;;21.10;99.90;;;;;;5053432;28;20008;-83
2022/07/06 08:37:04;;;;;;;4.93;2.13;;;21.10;99.90;;;;;;5049252;28;20030;-81
2022/07/06 08:39:33;;;;;;;2.63;1.70;;;21.10;99.90;;;;;;5053782;28;20029;-82
2022/07/06 08:42:02;;;;;;;8.35;2.30;;;21.20;99.90;;;;;;5052582;28;20442;-82
2022/07/06 08:44:42;;;;;;;4.07;2.03;;;21.20;99.90;;;;;;5050035;28;20101;-83
2022/07/06 08:47:13;;;;;;;8.05;2.28;;;21.30;99.90;;;;;;5053013;28;20021;-83
2022/07/06 08:49:43;;;;;;;5.00;2.10;;;21.40;99.90;;;;;;5053562;28;20022;-83
2022/07/06 08:52:13;;;;;;;7.95;2.30;;;21.40;99.90;;;;;;5038598;28;20096;-83
2022/07/06 08:54:41;;;;;;;6.65;2.10;;;21.40;99.90;;;;;;5051460;28;20045;-82
2022/07/06 08:57:30;;;;;;;9.25;2.60;;;21.50;99.90;;;;;;5009244;28;20030;-83
2022/07/06 09:00:03;;;;;;;3.75;2.10;;;21.40;99.90;;;;;;5009262;28;20026;-83
2022/07/06 09:02:33;;;;;;;3.50;1.90;;;21.50;99.90;;;;;;5005197;28;20029;-83
2022/07/06 09:05:03;;;;;;;4.90;2.30;;;21.50;99.90;;;;;;5003423;28;20027;-83
2022/07/06 09:07:52;;;;;;;5.82;2.60;;;21.60;99.90;;;;;;5007784;28;20026;-83
2022/07/06 09:10:21;;;;;;;5.80;2.28;;;21.60;99.90;;;;;;5007095;28;20030;-83
2022/07/06 09:12:53;;;;;;;6.63;2.30;;;21.80;99.90;;;;;;5011086;28;20022;-83
2022/07/06 09:15:34;;;;;;;9.05;2.17;;;21.80;99.90;;;;;;5011452;28;20479;-84
2022/07/06 09:18:15;;;;;;;5.40;2.22;;;21.90;99.90;;;;;;5010604;28;20023;-84
2022/07/06 09:20:43;;;;;;;4.55;2.47;;;22.10;99.90;;;;;;5011555;28;20029;-83
2022/07/06 09:23:22;;;;;;;7.28;2.17;;;22.20;99.90;;;;;;5009609;28;20026;-83
2022/07/06 09:25:50;;;;;;;6.20;2.40;;;22.20;99.90;;;;;;5007401;28;20042;-83
2022/07/06 09:28:43;;;;;;;6.15;3.13;;;22.40;99.90;;;;;;5006911;28;20027;-83
2022/07/06 09:31:12;;;;;;;6.28;2.35;;;22.50;99.90;;;;;;5001957;28;20379;-83
2022/07/06 09:33:38;;;;;;;3.90;2.20;;;22.60;99.90;;;;;;5005223;28;20022;-84
2022/07/06 09:36:05;;;;;;;5.80;2.30;;;22.80;99.90;;;;;;5039902;28;20075;-83
2022/07/06 09:38:31;;;;;;;6.25;2.10;;;23.00;99.90;;;;;;5041988;28;20045;-83
2022/07/06 09:41:02;;;;;;;4.32;2.30;;;23.20;99.90;;;;;;5026604;28;20069;-83
2022/07/06 09:43:34;;;;;;;7.18;2.65;;;23.40;99.90;;;;;;5023525;28;20030;-82
2022/07/06 09:46:03;;;;;;;11.05;2.55;;;23.60;99.90;;;;;;5003057;28;20367;-83
2022/07/06 09:48:31;;;;;;;6.60;3.28;;;23.90;99.90;;;;;;5002454;28;20023;-84
2022/07/06 09:51:02;;;;;;;7.28;2.13;;;24.40;99.90;;;;;;5004982;28;20026;-84
2022/07/06 09:53:30;;;;;;;6.97;1.90;;;24.50;99.90;;;;;;5006624;28;20042;-83
2022/07/06 09:56:02;;;;;;;5.88;1.80;;;24.40;99.90;;;;;;5006837;28;20049;-83
2022/07/06 09:58:31;;;;;;;6.68;2.00;;;24.50;99.90;;;;;;5009561;28;20022;-83
2022/07/06 10:01:04;;;;;;;5.60;1.70;;;24.80;99.90;;;;;;5009683;28;20078;-83
2022/07/06 10:03:33;;;;;;;6.63;2.03;;;25.10;99.90;;;;;;5003939;28;20029;-84
2022/07/06 10:06:02;;;;;;;6.63;2.30;;;25.50;99.90;;;;;;5006198;28;20030;-83
2022/07/06 10:08:33;;;;;;;5.88;1.88;;;26.00;99.90;;;;;;5002324;28;20027;-83
2022/07/06 10:11:01;;;;;;;4.57;1.88;;;26.20;99.90;;;;;;5005273;28;20026;-83
2022/07/06 10:13:41;;;;;;;5.47;1.80;;;26.50;99.90;;;;;;4999729;28;20034;-85
2022/07/06 10:16:15;;;;;;;7.05;1.80;;;26.70;99.90;;;;;;4995663;28;20391;-84
2022/07/06 10:18:41;;;;;;;5.78;1.90;;;26.80;99.90;;;;;;4997218;28;20050;-83
2022/07/06 10:21:09;;;;;;;4.15;1.88;;;27.00;99.90;;;;;;4999979;28;20034;-84
2022/07/06 10:23:35;;;;;;;5.07;1.83;;;27.30;99.90;;;;;;4996378;28;20026;-84
2022/07/06 10:26:02;;;;;;;5.20;1.85;;;27.50;99.90;;;;;;5001129;28;20042;-84
2022/07/06 10:28:30;;;;;;;5.28;1.60;;;27.40;99.90;;;;;;5009290;28;20434;-83
2022/07/06 10:30:58;;;;;;;3.38;1.70;;;27.20;99.90;;;;;;5015205;28;20061;-81
2022/07/06 10:33:25;;;;;;;4.68;1.70;;;26.80;99.90;;;;;;5014323;28;20030;-82
2022/07/06 10:35:55;;;;;;;7.55;1.90;;;26.50;99.90;;;;;;5012981;28;20045;-83
2022/07/06 10:38:34;;;;;;;2.65;1.50;;;26.40;99.90;;;;;;5011789;28;20352;-80
2022/07/06 10:41:09;;;;;;;3.35;1.90;;;26.40;99.90;;;;;;5027465;28;20097;-81
2022/07/06 10:43:41;;;;;;;3.13;1.83;;;26.50;99.90;;;;;;5013507;28;20101;-80
2022/07/06 10:46:17;;;;;;;9.20;2.03;;;26.50;99.80;;;;;;5028130;28;20352;-69
2022/07/06 10:48:44;;;;;;;5.55;1.80;;;26.70;99.90;;;;;;5033101;28;20017;-69
2022/07/06 10:51:27;;;;;;;5.03;1.83;;;26.60;99.00;;;;;;5018549;28;20026;-69
2022/07/06 10:53:57;;;;;;;6.70;1.70;;;26.70;99.90;;;;;;5013192;28;20080;-69
2022/07/06 10:56:40;;;;;;;5.90;1.88;;;26.70;99.50;;;;;;5013555;28;20040;-70
2022/07/06 10:59:16;;;;;;;3.90;2.00;;;26.40;99.90;;;;;;5016377;28;20052;-70
2022/07/06 11:02:17;;;;;;;5.45;2.03;;;26.60;99.90;;;;;;5027836;28;20037;-69
2022/07/06 11:04:46;;;;;;;2.85;1.50;;;26.90;99.20;;;;;;5017924;28;20022;-70
2022/07/06 11:07:17;;;;;;;2.92;1.90;;;27.20;97.60;;;;;;5006377;28;20083;-70
2022/07/06 11:10:00;;;;;;;5.03;1.98;;;27.30;99.00;;;;;;5033294;28;20029;-70
2022/07/06 11:12:26;;;;;;;6.10;1.90;;;27.60;96.70;;;;;;5024949;28;20089;-70
2022/07/06 11:14:52;;;;;;;4.25;1.48;;;27.60;96.10;;;;;;5022316;28;20133;-70
2022/07/06 11:17:18;;;;;;;5.28;1.67;;;27.60;96.20;;;;;;5013498;28;20061;-70
2022/07/06 11:19:57;;;;;;;3.85;1.45;;;27.20;96.80;;;;;;5009689;28;20125;-70
2022/07/06 11:22:24;;;;;;;3.90;1.58;;;26.90;96.00;;;;;;5017216;28;20049;-77
2022/07/06 11:24:51;;;;;;;2.92;1.60;;;26.90;96.00;;;;;;5018392;28;20065;-77
2022/07/06 11:27:17;;;;;;;3.28;1.77;;;27.20;95.30;;;;;;5031499;28;20037;-77
2022/07/06 11:29:44;;;;;;;4.57;1.83;;;27.60;95.60;;;;;;5027015;28;20120;-77
2022/07/06 11:32:11;;;;;;;3.63;1.55;;;27.60;95.00;;;;;;5020078;28;20018;-77
2022/07/06 11:34:42;;;;;;;3.00;1.70;;;27.70;94.40;;;;;;5020030;28;20486;-77
2022/07/06 11:37:10;;;;;;;6.25;1.83;;;27.80;95.10;;;;;;5019695;28;20481;-76
2022/07/06 11:39:39;;;;;;;3.17;2.00;;;27.90;93.50;;;;;;5022897;28;20034;-77
2022/07/06 11:42:05;;;;;;;7.15;1.77;;;28.00;93.40;;;;;;5013453;28;20101;-76
2022/07/06 11:44:31;;;;;;;3.72;1.50;;;28.10;92.70;;;;;;5024838;28;20082;-77
2022/07/06 11:47:00;;;;;;;4.40;1.63;;;28.20;92.40;;;;;;5015992;28;20046;-76
2022/07/06 11:49:25;;;;;;;3.58;1.50;;;28.60;92.80;;;;;;5017491;28;20463;-76
2022/07/06 11:51:51;;;;;;;4.85;1.90;;;28.80;92.60;;;;;;5016924;28;20040;-76
2022/07/06 11:54:21;;;;;;;3.47;1.55;;;29.10;90.00;;;;;;5018197;28;20022;-76
2022/07/06 11:56:55;;;;;;;5.03;1.92;;;29.10;91.80;;;;;;5036460;28;20100;-76
2022/07/06 11:59:22;;;;;;;;;;;29.20;88.00;;;;;;5040422;28;20072;-76
2022/07/06 12:01:48;;;;;;;7.00;1.55;;;29.20;89.30;;;;;;5032275;28;19912;-76
2022/07/06 12:04:14;;;;;;;3.90;1.70;;;29.20;90.20;;;;;;5020776;28;20021;-76
2022/07/06 12:06:40;;;;;;;3.85;1.48;;;29.20;91.40;;;;;;5020542;28;20081;-76
2022/07/06 12:09:06;;;;;;;4.97;1.55;;;29.30;88.40;;;;;;5020921;28;20030;-76
2022/07/06 12:11:34;;;;;;;3.63;1.90;;;28.90;85.90;;;;;;5020751;28;20033;-76
2022/07/06 12:14:03;;;;;;;4.10;1.63;;;28.30;89.90;;;;;;5020476;28;20022;-76
2022/07/06 12:16:30;;;;;;;4.18;1.70;;;27.70;89.20;;;;;;5020822;28;20033;-76
2022/07/06 12:18:56;;;;;;;5.47;1.88;;;27.00;90.50;;;;;;5020501;28;20100;-76
2022/07/06 12:21:21;;;;;;;6.50;1.98;;;26.50;92.30;;;;;;5006733;28;20164;-75
2022/07/06 12:23:53;;;;;;;4.60;2.25;;;26.30;92.40;;;;;;5005100;28;21561;-75
2022/07/06 12:26:20;;;;;;;5.10;1.60;;;26.50;92.90;;;;;;5002671;28;20046;-75
2022/07/06 12:28:58;;;;;;;3.95;1.48;;;27.00;91.00;;;;;;5008107;28;20852;-75
2022/07/06 12:31:35;;;;;;;3.90;1.73;;;27.30;90.60;;;;;;5008838;28;20467;-75
2022/07/06 12:34:01;;;;;;;3.88;1.40;;;27.90;90.70;;;;;;5010148;28;20029;-75
2022/07/06 12:36:27;;;;;;;5.32;1.60;;;28.30;90.10;;;;;;5010861;28;20034;-75
2022/07/06 12:38:53;;;;;;;5.03;1.50;;;28.80;90.50;;;;;;5010873;28;20036;-76
2022/07/06 12:41:30;;;;;;;5.13;1.70;;;28.70;90.00;;;;;;5007580;28;20022;-76
2022/07/06 12:44:09;;;;;;;4.55;1.63;;;28.30;88.50;;;;;;5001667;28;20058;-73
2022/07/06 12:46:39;;;;;;;3.22;1.70;;;28.50;89.20;;;;;;4999350;28;20026;-74
2022/07/06 12:49:22;;;;;;;7.57;1.77;;;28.60;88.80;;;;;;5004117;28;20073;-73
2022/07/06 12:52:09;;;;;;;3.85;1.80;;;28.20;89.20;;;;;;5008275;28;20026;-75
2022/07/06 12:54:43;;;;;;;3.97;1.65;;;27.60;87.70;;;;;;5008469;28;20489;-74
2022/07/06 12:57:14;;;;;;;;;;;27.00;90.00;;;;;;5009151;28;20109;-74
2022/07/06 12:59:52;;;;;;;3.30;1.67;;;26.70;90.50;;;;;;5007489;28;19909;-75
2022/07/06 13:02:24;;;;;;;3.00;1.60;;;26.80;92.30;;;;;;5000791;28;20026;-75